Terminal Aerodrome Forecast
Issued by NWS Mt. Holly, NJ

Current Version | Previous Version | Text Only | Print | Product List | Glossary On
Versions: 1 2 3 4 5 6 7 8 9 10 11 12 13 14 15 16 17
795
FTUS41 KPHI 210530
TAFRDG
TAF
KRDG 210530Z 2106/2206 VRB03KT P6SM SCT250 WS020/22035KT
     FM211400 21010KT P6SM SCT250
     FM212200 18007KT P6SM SCT220
     FM220300 21005KT P6SM SCT200=

USA.gov is the U.S. government's official web portal to all federal, state and local government web resources and services.